createdAt,value
2018-12-01T00:00:45.122Z,7.75
2018-12-01T00:01:45.301Z,7.76
2018-12-01T00:02:45.095Z,7.80
2018-12-01T00:03:45.092Z,7.87
2018-12-01T00:04:45.090Z,7.82
2018-12-01T00:05:45.088Z,7.72
2018-12-01T00:06:45.087Z,7.82
2018-12-01T00:07:45.094Z,7.87
2018-12-01T00:08:45.278Z,7.79
2018-12-01T00:09:45.073Z,7.80
2018-12-01T00:10:45.071Z,7.82
2018-12-01T00:11:45.068Z,7.93
2018-12-01T00:12:45.066Z,7.85
2018-12-01T00:13:45.071Z,7.72
2018-12-01T00:14:45.068Z,7.79
2018-12-01T00:15:45.054Z,7.77
2018-12-01T00:16:45.055Z,7.75
2018-12-01T00:17:45.048Z,7.70
2018-12-01T00:18:45.060Z,7.58
2018-12-01T00:19:45.052Z,7.67
2018-12-01T00:20:45.039Z,7.67
2018-12-01T00:21:45.237Z,7.63
2018-12-01T00:22:45.034Z,7.63
2018-12-01T00:23:45.335Z,7.54
2018-12-01T00:24:45.029Z,7.50
2018-12-01T00:25:45.022Z,7.51
2018-12-01T00:26:45.020Z,7.50
2018-12-01T00:27:45.031Z,7.50
2018-12-01T00:28:45.017Z,7.66
2018-12-01T00:29:45.215Z,7.50
2018-12-01T00:30:45.021Z,7.54
2018-12-01T00:31:45.206Z,7.50
2018-12-01T00:32:45.019Z,7.50
2018-12-01T00:33:44.997Z,7.51
2018-12-01T00:34:45.194Z,7.54
2018-12-01T00:35:50.709Z,7.53
2018-12-01T00:36:44.991Z,7.48
2018-12-01T00:37:45.187Z,7.51
2018-12-01T00:38:44.992Z,7.50
2018-12-01T00:39:44.977Z,7.50
2018-12-01T00:40:45.191Z,7.51
2018-12-01T00:41:44.982Z,7.58
2018-12-01T00:42:44.966Z,7.56
2018-12-01T00:43:45.188Z,7.53
2018-12-01T00:44:44.984Z,7.54
2018-12-01T00:45:44.975Z,7.50
2018-12-01T00:46:44.956Z,7.45
2018-12-01T00:47:44.954Z,7.47
2018-12-01T00:48:44.949Z,7.48
2018-12-01T00:49:44.961Z,7.45
2018-12-01T00:50:45.144Z,7.48
2018-12-01T00:51:44.946Z,7.48
2018-12-01T00:52:45.153Z,7.47
2018-12-01T00:53:44.945Z,7.47
2018-12-01T00:54:44.932Z,7.45
2018-12-01T00:55:45.128Z,7.42
2018-12-01T00:56:44.938Z,7.40
2018-12-01T00:57:45.134Z,7.43
2018-12-01T00:58:44.931Z,7.54
2018-12-01T00:59:44.913Z,7.53
2018-12-01T01:00:44.910Z,7.43
2018-12-01T01:01:44.923Z,7.42
2018-12-01T01:02:44.905Z,7.33
2018-12-01T01:03:44.925Z,7.38
2018-12-01T01:04:44.930Z,7.35
2018-12-01T01:05:44.896Z,7.36
2018-12-01T01:06:44.896Z,7.36
2018-12-01T01:07:44.903Z,7.36
2018-12-01T01:08:44.886Z,7.29
2018-12-01T01:09:44.882Z,7.24
2018-12-01T01:10:45.081Z,7.21
2018-12-01T01:11:44.890Z,7.23
2018-12-01T01:12:44.874Z,7.24
2018-12-01T01:13:45.070Z,7.25
2018-12-01T01:14:44.866Z,7.25
2018-12-01T01:15:44.863Z,7.17
2018-12-01T01:16:44.861Z,7.25
2018-12-01T01:17:44.885Z,7.17
2018-12-01T01:18:44.853Z,7.18
2018-12-01T01:19:44.864Z,7.10
2018-12-01T01:20:44.859Z,7.21
2018-12-01T01:21:44.841Z,7.13
2018-12-01T01:22:44.854Z,7.07
2018-12-01T01:23:44.858Z,6.96
2018-12-01T01:24:44.849Z,6.96
2018-12-01T01:25:44.839Z,6.96
2018-12-01T01:26:45.026Z,6.93
2018-12-01T01:27:45.040Z,6.84
2018-12-01T01:28:44.835Z,6.82
2018-12-01T01:29:44.815Z,6.88
2018-12-01T01:30:45.026Z,6.84
2018-12-01T01:31:44.824Z,6.82
2018-12-01T01:32:44.822Z,6.88
2018-12-01T01:33:44.816Z,6.88
2018-12-01T01:34:44.813Z,6.93
2018-12-01T01:35:44.800Z,6.96
2018-12-01T01:36:44.811Z,6.88
2018-12-01T01:37:45.000Z,7.10
2018-12-01T01:38:44.787Z,7.02
2018-12-01T01:39:44.793Z,6.92
2018-12-01T01:40:44.785Z,6.88
2018-12-01T01:41:44.797Z,6.89
2018-12-01T01:42:44.786Z,6.88
2018-12-01T01:43:44.771Z,6.85
2018-12-01T01:44:44.788Z,6.88
2018-12-01T01:45:44.776Z,6.89
2018-12-01T01:46:44.763Z,6.97
2018-12-01T01:47:44.761Z,7.03
2018-12-01T01:48:44.764Z,7.05
2018-12-01T01:49:44.751Z,7.03
2018-12-01T01:50:44.745Z,7.07
2018-12-01T01:51:44.744Z,7.06
2018-12-01T01:52:44.945Z,7.11
2018-12-01T01:53:45.154Z,7.06
2018-12-01T01:54:44.739Z,7.00
2018-12-01T01:55:44.947Z,6.97
2018-12-01T01:56:44.788Z,6.89
2018-12-01T01:57:44.732Z,6.89
2018-12-01T01:58:44.726Z,6.85
2018-12-01T01:59:44.743Z,6.77
2018-12-01T02:00:44.716Z,6.69
2018-12-01T02:01:44.722Z,6.75
2018-12-01T02:02:44.748Z,6.85
2018-12-01T02:03:44.909Z,6.85
2018-12-01T02:04:44.917Z,6.85
2018-12-01T02:05:44.696Z,6.88
2018-12-01T02:06:44.711Z,6.79
2018-12-01T02:07:44.691Z,6.85
2018-12-01T02:08:44.689Z,6.95
2018-12-01T02:09:44.694Z,6.93
2018-12-01T02:10:44.691Z,6.96
2018-12-01T02:11:44.695Z,6.99
2018-12-01T02:12:44.693Z,7.03
2018-12-01T02:13:44.873Z,7.11
2018-12-01T02:14:44.886Z,7.17
2018-12-01T02:15:44.674Z,7.25
2018-12-01T02:16:44.661Z,7.29
2018-12-01T02:17:44.659Z,7.24
2018-12-01T02:18:44.855Z,7.25
2018-12-01T02:19:44.661Z,7.32
2018-12-01T02:20:44.646Z,7.40
2018-12-01T02:21:44.845Z,7.36
2018-12-01T02:22:44.654Z,7.39
2018-12-01T02:23:44.637Z,7.47
2018-12-01T02:24:44.639Z,7.48
2018-12-01T02:25:44.659Z,7.48
2018-12-01T02:26:44.638Z,7.51
2018-12-01T02:27:44.636Z,7.66
2018-12-01T02:28:44.848Z,7.66
2018-12-01T02:29:44.640Z,7.60
2018-12-01T02:30:44.614Z,7.57
2018-12-01T02:31:44.830Z,7.60
2018-12-01T02:32:44.627Z,7.67
2018-12-01T02:33:44.607Z,7.70
2018-12-01T02:34:44.631Z,7.66
2018-12-01T02:35:44.597Z,7.67
2018-12-01T02:36:44.595Z,7.60
2018-12-01T02:37:44.591Z,7.66
2018-12-01T02:38:44.589Z,7.72
2018-12-01T02:39:44.618Z,7.69
2018-12-01T02:40:44.585Z,7.63
2018-12-01T02:41:44.789Z,7.70
2018-12-01T02:42:44.576Z,7.66
2018-12-01T02:43:44.585Z,7.75
2018-12-01T02:44:44.582Z,7.73
2018-12-01T02:45:44.574Z,7.76
2018-12-01T02:46:44.577Z,7.72
2018-12-01T02:47:44.571Z,7.79
2018-12-01T02:48:44.567Z,7.73
2018-12-01T02:49:44.583Z,7.73
2018-12-01T02:50:44.761Z,7.73
2018-12-01T02:51:44.562Z,7.76
2018-12-01T02:52:44.558Z,7.63
2018-12-01T02:53:44.564Z,7.73
2018-12-01T02:54:44.549Z,7.79
2018-12-01T02:55:44.549Z,7.73
2018-12-01T02:56:44.547Z,7.66
2018-12-01T02:57:44.734Z,7.60
2018-12-01T02:58:44.523Z,7.63
2018-12-01T02:59:44.530Z,7.72
2018-12-01T03:00:44.518Z,7.67
2018-12-01T03:01:44.716Z,7.67
2018-12-01T03:02:44.511Z,7.67
2018-12-01T03:03:44.508Z,7.63
2018-12-01T03:04:44.516Z,7.67
2018-12-01T03:05:44.501Z,7.66
2018-12-01T03:06:44.508Z,7.72
2018-12-01T03:07:44.495Z,7.70
2018-12-01T03:08:44.492Z,7.66
2018-12-01T03:09:44.487Z,7.67
2018-12-01T03:10:44.495Z,7.66
2018-12-01T03:11:44.482Z,7.69
2018-12-01T03:12:44.486Z,7.66
2018-12-01T03:13:44.476Z,7.61
2018-12-01T03:14:44.470Z,7.63
2018-12-01T03:15:44.468Z,7.72
2018-12-01T03:16:44.478Z,7.57
2018-12-01T03:17:44.460Z,7.69
2018-12-01T03:18:44.470Z,7.66
2018-12-01T03:19:44.468Z,7.76
2018-12-01T03:20:44.451Z,7.58
2018-12-01T03:21:44.447Z,7.77
2018-12-01T03:22:44.446Z,7.69
2018-12-01T03:23:44.441Z,7.72
2018-12-01T03:24:44.657Z,7.69
2018-12-01T03:25:44.639Z,7.66
2018-12-01T03:26:44.430Z,7.79
2018-12-01T03:27:44.431Z,7.67
2018-12-01T03:28:44.425Z,7.75
2018-12-01T03:29:44.435Z,7.79
2018-12-01T03:30:44.636Z,7.73
2018-12-01T03:31:44.635Z,7.73
2018-12-01T03:32:44.415Z,7.75
2018-12-01T03:33:44.419Z,7.87
2018-12-01T03:34:44.405Z,7.82
2018-12-01T03:35:44.417Z,7.80
2018-12-01T03:36:44.442Z,7.79
2018-12-01T03:37:44.413Z,7.93
2018-12-01T03:38:44.411Z,7.90
2018-12-01T03:39:44.594Z,7.93
2018-12-01T03:40:44.390Z,7.94
2018-12-01T03:41:44.396Z,7.95
2018-12-01T03:42:44.379Z,7.93
2018-12-01T03:43:44.387Z,7.90
2018-12-01T03:44:44.372Z,7.90
2018-12-01T03:45:44.370Z,7.95
2018-12-01T03:46:44.366Z,8.01
2018-12-01T03:47:44.375Z,7.93
2018-12-01T03:48:44.359Z,7.98
2018-12-01T03:49:44.366Z,7.97
2018-12-01T03:50:44.557Z,7.90
2018-12-01T03:51:44.555Z,7.97
2018-12-01T03:52:44.549Z,7.94
2018-12-01T03:53:44.344Z,7.97
2018-12-01T03:54:44.343Z,7.93
2018-12-01T03:55:44.347Z,7.90
2018-12-01T03:56:44.334Z,7.95
2018-12-01T03:57:44.354Z,7.94
2018-12-01T03:58:44.328Z,7.97
2018-12-01T03:59:44.321Z,7.98
2018-12-01T04:00:44.525Z,7.94
2018-12-01T04:01:44.318Z,7.98
2018-12-01T04:02:44.342Z,7.95
2018-12-01T04:03:44.327Z,8.00
2018-12-01T04:04:44.334Z,7.95
2018-12-01T04:05:44.320Z,7.93
2018-12-01T04:06:44.315Z,7.97
2018-12-01T04:07:44.298Z,7.97
2018-12-01T04:08:44.319Z,8.00
2018-12-01T04:09:44.313Z,7.94
2018-12-01T04:10:44.319Z,7.90
2018-12-01T04:11:44.323Z,7.91
2018-12-01T04:12:44.314Z,7.90
2018-12-01T04:13:44.304Z,7.79
2018-12-01T04:14:44.319Z,7.82
2018-12-01T04:15:44.319Z,7.91
2018-12-01T04:16:44.307Z,7.80
2018-12-01T04:17:44.323Z,7.82
2018-12-01T04:18:44.275Z,7.91
2018-12-01T04:19:44.462Z,7.83
2018-12-01T04:20:44.256Z,7.79
2018-12-01T04:21:44.268Z,7.85
2018-12-01T04:22:44.262Z,7.77
2018-12-01T04:23:44.247Z,7.82
2018-12-01T04:24:44.268Z,7.72
2018-12-01T04:25:44.255Z,7.72
2018-12-01T04:26:44.258Z,7.73
2018-12-01T04:27:44.248Z,7.77
2018-12-01T04:28:44.432Z,7.72
2018-12-01T04:29:44.226Z,7.75
2018-12-01T04:30:44.227Z,7.80
2018-12-01T04:31:44.220Z,7.73
2018-12-01T04:32:44.451Z,7.69
2018-12-01T04:33:44.225Z,7.76
2018-12-01T04:34:44.210Z,7.70
2018-12-01T04:35:44.215Z,7.75
2018-12-01T04:36:44.216Z,7.76
2018-12-01T04:37:44.200Z,7.77
2018-12-01T04:38:44.213Z,7.60
2018-12-01T04:39:44.208Z,7.70
2018-12-01T04:40:44.198Z,7.67
2018-12-01T04:41:44.188Z,7.66
2018-12-01T04:42:44.193Z,7.76
2018-12-01T04:43:44.213Z,7.69
2018-12-01T04:44:44.181Z,7.60
2018-12-01T04:45:44.205Z,7.72
2018-12-01T04:46:44.185Z,7.67
2018-12-01T04:47:44.200Z,7.66
2018-12-01T04:48:44.177Z,7.66
2018-12-01T04:49:44.367Z,7.67
2018-12-01T04:50:44.171Z,7.66
2018-12-01T04:51:44.158Z,7.63
2018-12-01T04:52:44.161Z,7.69
2018-12-01T04:53:44.161Z,7.69
2018-12-01T04:54:44.353Z,7.66
2018-12-01T04:55:44.156Z,7.69
2018-12-01T04:56:44.143Z,7.60
2018-12-01T04:57:44.152Z,7.72
2018-12-01T04:58:44.136Z,7.60
2018-12-01T04:59:44.334Z,7.69
2018-12-01T05:00:44.129Z,7.79
2018-12-01T05:01:44.326Z,7.75
2018-12-01T05:02:44.122Z,7.72
2018-12-01T05:03:44.118Z,7.67
2018-12-01T05:04:44.137Z,7.67
2018-12-01T05:05:44.326Z,7.69
2018-12-01T05:06:44.137Z,7.73
2018-12-01T05:07:44.106Z,7.70
2018-12-01T05:08:44.114Z,7.67
2018-12-01T05:09:44.109Z,7.76
2018-12-01T05:10:44.108Z,7.58
2018-12-01T05:11:44.109Z,7.75
2018-12-01T05:12:44.088Z,7.79
2018-12-01T05:13:44.086Z,7.69
2018-12-01T05:14:44.286Z,7.66
2018-12-01T05:15:44.092Z,7.72
2018-12-01T05:16:44.102Z,7.67
2018-12-01T05:17:44.086Z,7.66
2018-12-01T05:18:44.095Z,7.48
2018-12-01T05:19:44.270Z,7.56
2018-12-01T05:20:44.089Z,7.54
2018-12-01T05:21:44.085Z,7.53
2018-12-01T05:22:44.070Z,7.51
2018-12-01T05:23:44.079Z,7.53
2018-12-01T05:24:44.063Z,7.47
2018-12-01T05:25:44.264Z,7.45
2018-12-01T05:26:44.073Z,7.36
2018-12-01T05:27:44.041Z,7.39
2018-12-01T05:28:44.038Z,7.38
2018-12-01T05:29:44.048Z,7.32
2018-12-01T05:30:44.041Z,7.23
2018-12-01T05:31:44.029Z,7.21
2018-12-01T05:32:44.031Z,7.28
2018-12-01T05:33:44.032Z,7.24
2018-12-01T05:34:44.032Z,7.21
2018-12-01T05:35:44.049Z,7.23
2018-12-01T05:36:44.052Z,7.21
2018-12-01T05:37:44.038Z,7.15
2018-12-01T05:38:44.023Z,7.20
2018-12-01T05:39:44.042Z,7.14
2018-12-01T05:40:44.020Z,7.11
2018-12-01T05:41:44.009Z,7.06
2018-12-01T05:42:43.990Z,7.07
2018-12-01T05:43:43.999Z,7.07
2018-12-01T05:44:44.000Z,7.02
2018-12-01T05:45:43.982Z,6.92
2018-12-01T05:46:43.988Z,6.93
2018-12-01T05:47:43.973Z,6.89
2018-12-01T05:48:43.998Z,6.87
2018-12-01T05:49:43.986Z,6.81
2018-12-01T05:50:43.989Z,6.85
2018-12-01T05:51:43.961Z,6.81
2018-12-01T05:52:43.956Z,6.84
2018-12-01T05:53:43.965Z,6.87
2018-12-01T05:54:43.950Z,6.82
2018-12-01T05:55:43.960Z,6.84
2018-12-01T05:56:43.956Z,6.82
2018-12-01T05:57:43.948Z,6.85
2018-12-01T05:58:43.941Z,6.84
2018-12-01T05:59:43.953Z,6.85
2018-12-01T06:00:44.159Z,6.84
2018-12-01T06:01:43.932Z,6.78
2018-12-01T06:02:43.938Z,6.81
2018-12-01T06:03:43.936Z,6.89
2018-12-01T06:04:43.921Z,6.77
2018-12-01T06:05:44.131Z,6.77
2018-12-01T06:06:43.915Z,6.77
2018-12-01T06:07:43.907Z,6.78
2018-12-01T06:08:44.157Z,6.74
2018-12-01T06:09:44.142Z,6.75
2018-12-01T06:10:43.927Z,6.77
2018-12-01T06:11:43.891Z,6.78
2018-12-01T06:12:43.892Z,6.77
2018-12-01T06:13:43.899Z,6.63
2018-12-01T06:14:43.895Z,6.72
2018-12-01T06:15:43.879Z,6.63
2018-12-01T06:16:43.894Z,6.69
2018-12-01T06:17:43.906Z,6.70
2018-12-01T06:18:44.085Z,6.66
2018-12-01T06:19:43.892Z,6.56
2018-12-01T06:20:43.892Z,6.52
2018-12-01T06:21:43.873Z,6.51
2018-12-01T06:22:43.857Z,6.51
2018-12-01T06:23:43.855Z,6.60
2018-12-01T06:24:43.851Z,6.57
2018-12-01T06:25:44.054Z,6.60
2018-12-01T06:26:43.857Z,6.56
2018-12-01T06:27:43.839Z,6.57
2018-12-01T06:28:43.840Z,6.56
2018-12-01T06:29:43.829Z,6.54
2018-12-01T06:30:44.043Z,6.60
2018-12-01T06:31:43.837Z,6.56
2018-12-01T06:32:43.822Z,6.63
2018-12-01T06:33:43.820Z,6.63
2018-12-01T06:34:43.817Z,6.62
2018-12-01T06:35:44.029Z,6.70
2018-12-01T06:36:43.831Z,6.66
2018-12-01T06:37:43.801Z,6.64
2018-12-01T06:38:43.804Z,6.66
2018-12-01T06:39:43.797Z,6.60
2018-12-01T06:40:43.797Z,6.60
2018-12-01T06:41:43.800Z,6.52
2018-12-01T06:42:43.785Z,6.57
2018-12-01T06:43:43.784Z,6.56
2018-12-01T06:44:43.780Z,6.63
2018-12-01T06:45:43.775Z,6.56
2018-12-01T06:46:43.771Z,6.60
2018-12-01T06:47:43.770Z,6.59
2018-12-01T06:48:43.969Z,6.59
2018-12-01T06:49:43.976Z,6.51
2018-12-01T06:50:43.757Z,6.51
2018-12-01T06:51:43.753Z,6.57
2018-12-01T06:52:43.752Z,6.60
2018-12-01T06:53:43.748Z,6.59
2018-12-01T06:54:43.752Z,6.54
2018-12-01T06:55:43.760Z,6.62
2018-12-01T06:56:43.747Z,6.62
2018-12-01T06:57:43.968Z,6.56
2018-12-01T06:58:43.933Z,6.56
2018-12-01T06:59:43.728Z,6.56
2018-12-01T07:00:43.957Z,6.59
2018-12-01T07:01:43.731Z,6.59
2018-12-01T07:02:43.716Z,6.69
2018-12-01T07:03:43.930Z,6.66
2018-12-01T07:04:43.707Z,6.67
2018-12-01T07:05:43.918Z,6.60
2018-12-01T07:06:43.706Z,6.56
2018-12-01T07:07:43.699Z,6.56
2018-12-01T07:08:43.703Z,6.63
2018-12-01T07:09:43.692Z,6.60
2018-12-01T07:10:43.689Z,6.66
2018-12-01T07:11:43.708Z,6.60
2018-12-01T07:12:43.690Z,6.70
2018-12-01T07:13:43.878Z,6.67
2018-12-01T07:14:43.703Z,6.64
2018-12-01T07:15:43.699Z,6.70
2018-12-01T07:16:43.679Z,6.72
2018-12-01T07:17:43.677Z,6.69
2018-12-01T07:18:43.659Z,6.66
2018-12-01T07:19:43.667Z,6.70
2018-12-01T07:20:43.870Z,6.69
2018-12-01T07:21:43.848Z,6.74
2018-12-01T07:22:43.656Z,6.77
2018-12-01T07:23:43.642Z,6.74
2018-12-01T07:24:43.640Z,6.78
2018-12-01T07:25:43.636Z,6.82
2018-12-01T07:26:43.637Z,6.85
2018-12-01T07:27:43.629Z,6.93
2018-12-01T07:28:43.627Z,6.85
2018-12-01T07:29:43.633Z,6.87
2018-12-01T07:30:43.615Z,6.81
2018-12-01T07:31:43.622Z,6.82
2018-12-01T07:32:43.612Z,6.84
2018-12-01T07:33:43.621Z,6.89
2018-12-01T07:34:43.617Z,6.87
2018-12-01T07:35:43.606Z,6.89
2018-12-01T07:36:43.604Z,6.95
2018-12-01T07:37:43.606Z,6.92
2018-12-01T07:38:43.592Z,6.92
2018-12-01T07:39:43.608Z,6.96
2018-12-01T07:40:43.599Z,6.96
2018-12-01T07:41:43.586Z,6.96
2018-12-01T07:42:43.589Z,7.00
2018-12-01T07:43:43.582Z,7.03
2018-12-01T07:44:43.600Z,7.05
2018-12-01T07:45:43.578Z,7.07
2018-12-01T07:46:43.577Z,7.18
2018-12-01T07:47:43.584Z,7.14
2018-12-01T07:48:43.564Z,7.15
2018-12-01T07:49:43.557Z,7.10
2018-12-01T07:50:43.553Z,7.10
2018-12-01T07:51:43.550Z,7.06
2018-12-01T07:52:43.573Z,7.10
2018-12-01T07:53:43.537Z,7.06
2018-12-01T07:54:43.548Z,6.99
2018-12-01T07:55:43.536Z,7.03
2018-12-01T07:56:43.545Z,6.88
2018-12-01T07:57:43.540Z,6.88
2018-12-01T07:58:43.529Z,7.02
2018-12-01T07:59:43.536Z,6.96
2018-12-01T08:00:43.527Z,7.05
2018-12-01T08:01:43.525Z,6.99
2018-12-01T08:02:43.534Z,7.06
2018-12-01T08:03:43.537Z,7.05
2018-12-01T08:04:43.517Z,7.10
2018-12-01T08:05:43.508Z,7.07
2018-12-01T08:06:43.499Z,7.10
2018-12-01T08:07:43.504Z,7.02
2018-12-01T08:08:43.501Z,7.06
2018-12-01T08:09:43.500Z,7.17
2018-12-01T08:10:43.505Z,7.17
2018-12-01T08:11:43.484Z,7.18
2018-12-01T08:12:43.500Z,7.17
2018-12-01T08:13:43.479Z,7.18
2018-12-01T08:14:43.469Z,7.18
2018-12-01T08:15:43.490Z,7.17
2018-12-01T08:16:43.481Z,7.24
2018-12-01T08:17:43.458Z,7.28
2018-12-01T08:18:43.474Z,7.25
2018-12-01T08:19:43.463Z,7.24
2018-12-01T08:20:43.468Z,7.29
2018-12-01T08:21:43.455Z,7.31
2018-12-01T08:22:43.439Z,7.35
2018-12-01T08:23:43.491Z,7.38
2018-12-01T08:24:43.440Z,7.40
2018-12-01T08:25:43.442Z,7.45
2018-12-01T08:26:43.450Z,7.43
2018-12-01T08:27:43.434Z,7.38
2018-12-01T08:28:43.450Z,7.48
2018-12-01T08:29:43.637Z,7.53
2018-12-01T08:30:43.415Z,7.45
2018-12-01T08:31:43.423Z,7.51
2018-12-01T08:32:43.420Z,7.47
2018-12-01T08:33:43.447Z,7.57
2018-12-01T08:34:43.404Z,7.51
2018-12-01T08:35:43.432Z,7.50
2018-12-01T08:36:43.434Z,7.67
2018-12-01T08:37:43.620Z,7.69
2018-12-01T08:38:43.401Z,7.73
2018-12-01T08:39:43.387Z,7.66
2018-12-01T08:40:43.380Z,7.67
2018-12-01T08:41:43.391Z,7.61
2018-12-01T08:42:43.379Z,7.67
2018-12-01T08:43:43.384Z,7.72
2018-12-01T08:44:43.380Z,7.75
2018-12-01T08:45:43.383Z,7.60
2018-12-01T08:46:43.371Z,7.73
2018-12-01T08:47:43.374Z,7.73
2018-12-01T08:48:43.367Z,7.76
2018-12-01T08:49:44.491Z,7.70
2018-12-01T08:50:43.345Z,7.73
2018-12-01T08:51:43.356Z,7.79
2018-12-01T08:52:43.341Z,7.75
2018-12-01T08:53:43.343Z,7.75
2018-12-01T08:54:43.330Z,7.79
2018-12-01T08:55:43.339Z,7.87
2018-12-01T08:56:43.325Z,7.87
2018-12-01T08:57:43.315Z,7.82
2018-12-01T08:58:43.331Z,7.88
2018-12-01T08:59:43.333Z,7.90
2018-12-01T09:00:43.325Z,7.85
2018-12-01T09:01:43.301Z,7.88
2018-12-01T09:02:43.304Z,7.82
2018-12-01T09:03:43.300Z,7.93
2018-12-01T09:04:43.297Z,7.87
2018-12-01T09:05:43.289Z,7.88
2018-12-01T09:06:43.316Z,7.94
2018-12-01T09:07:43.299Z,8.01
2018-12-01T09:08:43.288Z,7.87
2018-12-01T09:09:43.290Z,7.94
2018-12-01T09:10:43.286Z,8.00
2018-12-01T09:11:43.285Z,7.95
2018-12-01T09:12:43.267Z,8.01
2018-12-01T09:13:43.261Z,8.06
2018-12-01T09:14:43.262Z,7.98
2018-12-01T09:15:43.259Z,7.97
2018-12-01T09:16:43.251Z,8.03
2018-12-01T09:17:43.247Z,7.97
2018-12-01T09:18:43.253Z,8.00
2018-12-01T09:19:43.251Z,8.00
2018-12-01T09:20:43.242Z,8.01
2018-12-01T09:21:43.244Z,7.98
2018-12-01T09:22:43.237Z,7.95
2018-12-01T09:23:43.228Z,7.97
2018-12-01T09:24:43.226Z,7.98
2018-12-01T09:25:43.219Z,7.95
2018-12-01T09:26:43.231Z,7.91
2018-12-01T09:27:43.219Z,7.88
2018-12-01T09:28:43.216Z,7.95
2018-12-01T09:29:43.207Z,7.91
2018-12-01T09:30:43.207Z,7.88
2018-12-01T09:31:43.202Z,8.00
2018-12-01T09:32:43.202Z,7.93
2018-12-01T09:33:43.207Z,8.01
2018-12-01T09:34:43.197Z,7.97
2018-12-01T09:35:43.186Z,7.97
2018-12-01T09:36:43.184Z,8.06
2018-12-01T09:37:43.178Z,8.05
2018-12-01T09:38:43.173Z,8.19
2018-12-01T09:39:43.196Z,8.26
2018-12-01T09:40:43.169Z,8.24
2018-12-01T09:41:43.181Z,8.26
2018-12-01T09:42:43.179Z,8.24
2018-12-01T09:43:43.168Z,8.30
2018-12-01T09:44:43.164Z,8.34
2018-12-01T09:45:43.159Z,8.38
2018-12-01T09:46:43.148Z,8.41
2018-12-01T09:47:43.145Z,8.45
2018-12-01T09:48:43.154Z,8.45
2018-12-01T09:49:43.153Z,8.56
2018-12-01T09:50:43.135Z,8.60
2018-12-01T09:51:43.131Z,8.63
2018-12-01T09:52:43.157Z,8.70
2018-12-01T09:53:43.149Z,8.73
2018-12-01T09:54:43.124Z,8.84
2018-12-01T09:55:43.120Z,8.81
2018-12-01T09:56:43.120Z,8.91
2018-12-01T09:57:43.123Z,8.94
2018-12-01T09:58:43.117Z,8.92
2018-12-01T09:59:43.111Z,9.06
2018-12-01T10:00:43.129Z,8.97
2018-12-01T10:01:43.101Z,9.11
2018-12-01T10:02:43.116Z,9.10
2018-12-01T10:03:43.117Z,9.14
2018-12-01T10:04:43.090Z,9.13
2018-12-01T10:05:43.088Z,9.13
2018-12-01T10:06:43.082Z,9.21
2018-12-01T10:07:43.082Z,9.31
2018-12-01T10:08:43.081Z,9.29
2018-12-01T10:09:43.077Z,9.41
2018-12-01T10:10:43.087Z,9.40
2018-12-01T10:11:43.095Z,9.29
2018-12-01T10:12:43.063Z,9.36
2018-12-01T10:13:43.085Z,9.31
2018-12-01T10:14:43.078Z,9.32
2018-12-01T10:15:43.054Z,9.34
2018-12-01T10:16:43.057Z,9.41
2018-12-01T10:17:43.059Z,9.46
2018-12-01T10:18:43.043Z,9.51
2018-12-01T10:19:43.055Z,9.47
2018-12-01T10:20:43.039Z,9.48
2018-12-01T10:21:43.033Z,9.50
2018-12-01T10:22:43.035Z,9.47
2018-12-01T10:23:43.047Z,9.44
2018-12-01T10:24:43.059Z,9.58
2018-12-01T10:25:43.055Z,9.55
2018-12-01T10:26:43.045Z,9.54
2018-12-01T10:27:43.028Z,9.59
2018-12-01T10:28:43.031Z,9.54
2018-12-01T10:29:43.049Z,9.58
2018-12-01T10:30:43.010Z,9.56
2018-12-01T10:31:43.018Z,9.40
2018-12-01T10:32:43.016Z,9.44
2018-12-01T10:33:43.065Z,9.43
2018-12-01T10:34:43.036Z,9.43
2018-12-01T10:35:43.019Z,9.47
2018-12-01T10:36:42.993Z,9.44
2018-12-01T10:37:42.999Z,9.46
2018-12-01T10:38:43.020Z,9.47
2018-12-01T10:39:42.987Z,9.46
2018-12-01T10:40:42.984Z,9.43
2018-12-01T10:41:42.992Z,9.50
2018-12-01T10:42:43.006Z,9.43
2018-12-01T10:43:42.983Z,9.54
2018-12-01T10:44:43.007Z,9.50
2018-12-01T10:45:42.986Z,9.58
2018-12-01T10:46:42.995Z,9.55
2018-12-01T10:47:42.988Z,9.56
2018-12-01T10:48:42.963Z,9.51
2018-12-01T10:49:42.981Z,9.58
2018-12-01T10:50:42.948Z,9.62
2018-12-01T10:51:42.944Z,9.56
2018-12-01T10:52:42.964Z,9.62
2018-12-01T10:53:42.957Z,9.61
2018-12-01T10:54:42.958Z,9.69
2018-12-01T10:55:42.947Z,9.69
2018-12-01T10:56:42.941Z,9.59
2018-12-01T10:57:43.037Z,9.59
2018-12-01T10:58:42.937Z,9.58
2018-12-01T10:59:42.927Z,9.69
2018-12-01T11:00:42.935Z,9.68
2018-12-01T11:01:42.918Z,9.69
2018-12-01T11:02:42.939Z,9.72
2018-12-01T11:03:42.928Z,9.66
2018-12-01T11:04:42.913Z,9.69
2018-12-01T11:05:42.935Z,9.59
2018-12-01T11:06:42.923Z,9.59
2018-12-01T11:07:42.912Z,9.55
2018-12-01T11:08:42.910Z,9.58
2018-12-01T11:09:42.914Z,9.59
2018-12-01T11:10:42.912Z,9.72
2018-12-01T11:11:42.908Z,9.64
2018-12-01T11:12:42.882Z,9.73
2018-12-01T11:13:42.892Z,9.65
2018-12-01T11:14:42.886Z,9.69
2018-12-01T11:15:42.878Z,9.69
2018-12-01T11:16:42.872Z,9.66
2018-12-01T11:17:42.886Z,9.69
2018-12-01T11:18:42.873Z,9.79
2018-12-01T11:19:42.894Z,9.84
2018-12-01T11:20:42.866Z,9.80
2018-12-01T11:21:42.873Z,9.83
2018-12-01T11:22:42.870Z,9.82
2018-12-01T11:23:42.869Z,9.84
2018-12-01T11:24:42.889Z,9.99
2018-12-01T11:25:42.846Z,9.99
2018-12-01T11:26:42.856Z,9.95
2018-12-01T11:27:43.054Z,9.99
2018-12-01T11:28:42.849Z,9.97
2018-12-01T11:29:42.837Z,9.97
2018-12-01T11:30:42.837Z,9.95
2018-12-01T11:31:42.860Z,9.98
2018-12-01T11:32:42.833Z,9.98
2018-12-01T11:33:42.837Z,10.05
2018-12-01T11:34:42.825Z,10.13
2018-12-01T11:35:42.845Z,10.09
2018-12-01T11:36:42.820Z,10.15
2018-12-01T11:37:42.836Z,10.31
2018-12-01T11:38:42.827Z,10.23
2018-12-01T11:39:43.032Z,10.22
2018-12-01T11:40:42.809Z,10.20
2018-12-01T11:41:42.803Z,10.28
2018-12-01T11:42:42.815Z,10.22
2018-12-01T11:43:42.831Z,10.30
2018-12-01T11:44:42.799Z,10.35
2018-12-01T11:45:42.800Z,10.35
2018-12-01T11:46:42.804Z,10.42
2018-12-01T11:47:42.800Z,10.49
2018-12-01T11:48:42.799Z,10.41
2018-12-01T11:49:42.781Z,10.46
2018-12-01T11:50:42.782Z,10.57
2018-12-01T11:51:42.989Z,10.51
2018-12-01T11:52:42.785Z,10.59
2018-12-01T11:53:42.782Z,10.68
2018-12-01T11:54:42.772Z,10.68
2018-12-01T11:55:42.778Z,10.72
2018-12-01T11:56:42.778Z,10.68
2018-12-01T11:57:42.780Z,10.63
2018-12-01T11:58:42.772Z,10.76
2018-12-01T11:59:42.767Z,10.75
2018-12-01T12:00:42.770Z,10.72
2018-12-01T12:01:42.766Z,10.89
2018-12-01T12:02:42.766Z,10.78
2018-12-01T12:03:42.762Z,10.90
2018-12-01T12:04:42.772Z,10.84
2018-12-01T12:05:42.739Z,10.93
2018-12-01T12:06:42.739Z,10.94
2018-12-01T12:07:42.737Z,10.97
2018-12-01T12:08:42.760Z,10.93
2018-12-01T12:09:42.729Z,10.97
2018-12-01T12:10:42.942Z,10.94
2018-12-01T12:11:42.736Z,10.97
2018-12-01T12:12:42.740Z,10.92
2018-12-01T12:13:42.720Z,10.94
2018-12-01T12:14:42.729Z,10.89
2018-12-01T12:15:42.716Z,10.84
2018-12-01T12:16:42.713Z,10.89
2018-12-01T12:17:42.715Z,10.90
2018-12-01T12:18:42.731Z,10.87
2018-12-01T12:19:42.704Z,10.81
2018-12-01T12:20:42.705Z,10.86
2018-12-01T12:21:42.709Z,10.78
2018-12-01T12:22:42.697Z,10.82
2018-12-01T12:23:42.720Z,10.78
2018-12-01T12:24:42.698Z,10.86
2018-12-01T12:25:42.899Z,10.87
2018-12-01T12:26:42.693Z,10.79
2018-12-01T12:27:42.698Z,10.82
2018-12-01T12:28:42.694Z,10.81
2018-12-01T12:29:42.896Z,10.89
2018-12-01T12:30:42.683Z,10.93
2018-12-01T12:31:42.690Z,10.84
2018-12-01T12:32:42.686Z,10.92
2018-12-01T12:33:42.677Z,10.89
2018-12-01T12:34:42.674Z,10.90
2018-12-01T12:35:42.687Z,10.99
2018-12-01T12:36:42.869Z,10.89
2018-12-01T12:37:42.664Z,10.99
2018-12-01T12:38:42.660Z,10.92
2018-12-01T12:39:42.672Z,10.96
2018-12-01T12:40:42.658Z,10.96
2018-12-01T12:41:42.667Z,10.93
2018-12-01T12:42:42.650Z,10.97
2018-12-01T12:43:42.669Z,10.92
2018-12-01T12:44:42.659Z,10.93
2018-12-01T12:45:42.658Z,10.92
2018-12-01T12:46:42.644Z,10.96
2018-12-01T12:47:42.641Z,10.96
2018-12-01T12:48:42.638Z,10.99
2018-12-01T12:49:42.838Z,10.90
2018-12-01T12:50:42.633Z,11.05
2018-12-01T12:51:42.677Z,11.00
2018-12-01T12:52:43.408Z,11.00
2018-12-01T12:53:42.668Z,11.10
2018-12-01T12:54:42.633Z,11.04
2018-12-01T12:55:42.648Z,10.99
2018-12-01T12:56:42.620Z,10.96
2018-12-01T12:57:42.621Z,11.00
2018-12-01T12:58:42.629Z,10.92
2018-12-01T12:59:42.613Z,11.07
2018-12-01T13:00:42.625Z,11.00
2018-12-01T13:01:42.608Z,10.99
2018-12-01T13:02:42.865Z,10.92
2018-12-01T13:03:42.629Z,10.93
2018-12-01T13:04:42.810Z,11.04
2018-12-01T13:05:42.602Z,10.93
2018-12-01T13:06:42.606Z,10.92
2018-12-01T13:07:42.595Z,11.04
2018-12-01T13:08:42.594Z,11.00
2018-12-01T13:09:42.599Z,11.00
2018-12-01T13:10:42.591Z,11.02
2018-12-01T13:11:42.800Z,11.02
2018-12-01T13:12:42.585Z,11.08
2018-12-01T13:13:42.585Z,11.10
2018-12-01T13:14:42.602Z,11.00
2018-12-01T13:15:42.593Z,11.05